Time;durP1;ratioP1;P1;durP2;ratioP2;P2;SDS_P1;SDS_P2;PMS_P1;PMS_P2;Temp;Humidity;BMP_temperature;BMP_pressure;BME280_temperature;BME280_humidity;BME280_pressure;Samples;Min_cycle;Max_cycle;Signal;HPM_P1;HPM_P2
2022/04/25 00:01:02;;;;;;;12.77;6.97;;;;;;;9.20;71.13;100809.16;5090903;28;20020;-72
2022/04/25 00:03:27;;;;;;;9.88;6.35;;;;;;;9.15;71.11;100804.03;5091506;28;20448;-72
2022/04/25 00:05:53;;;;;;;10.05;6.75;;;;;;;9.10;71.41;100809.31;5091205;28;20480;-72
2022/04/25 00:08:18;;;;;;;11.13;6.50;;;;;;;8.96;71.76;100808.72;5090460;28;20035;-72
2022/04/25 00:10:43;;;;;;;11.70;6.78;;;;;;;8.86;71.77;100823.63;5091323;28;20027;-72
2022/04/25 00:13:09;;;;;;;10.85;6.82;;;;;;;8.88;72.12;100818.38;5091055;28;20097;-71
2022/04/25 00:15:34;;;;;;;8.02;6.30;;;;;;;8.87;72.42;100822.72;5091456;28;20028;-72
2022/04/25 00:17:59;;;;;;;11.55;6.13;;;;;;;8.83;72.63;100825.41;5087249;28;20028;-72
2022/04/25 00:20:24;;;;;;;12.38;6.57;;;;;;;8.77;72.78;100826.38;5089923;28;20047;-72
2022/04/25 00:22:50;;;;;;;12.30;6.60;;;;;;;8.70;73.02;100826.47;5091549;28;20161;-72
2022/04/25 00:25:15;;;;;;;11.63;6.70;;;;;;;8.70;73.43;100823.88;5090713;28;20020;-72
2022/04/25 00:27:41;;;;;;;12.65;7.43;;;;;;;8.59;73.54;100826.63;5088651;28;20063;-72
2022/04/25 00:30:07;;;;;;;11.65;6.93;;;;;;;8.47;73.93;100822.50;5091384;28;20046;-72
2022/04/25 00:32:32;;;;;;;16.48;7.22;;;;;;;8.38;74.33;100822.66;5090415;28;20020;-71
2022/04/25 00:34:57;;;;;;;14.10;6.72;;;;;;;8.33;74.60;100821.81;5091702;28;20040;-71
2022/04/25 00:37:22;;;;;;;12.88;6.95;;;;;;;8.28;74.72;100821.03;5093427;28;20042;-72
2022/04/25 00:39:48;;;;;;;11.90;7.18;;;;;;;8.24;75.27;100830.59;5093094;28;20114;-71
2022/04/25 00:42:13;;;;;;;10.50;6.80;;;;;;;8.19;75.02;100837.59;5092998;28;20069;-71
2022/04/25 00:44:39;;;;;;;11.90;7.00;;;;;;;8.13;75.77;100827.28;5094854;28;20375;-72
2022/04/25 00:47:06;;;;;;;12.63;7.22;;;;;;;8.10;75.77;100824.72;5090526;28;20028;-71
2022/04/25 00:49:31;;;;;;;12.95;7.22;;;;;;;8.09;76.08;100823.88;5074705;28;20043;-71
2022/04/25 00:51:57;;;;;;;12.02;7.13;;;;;;;8.09;75.99;100823.88;5074146;28;20504;-71
2022/04/25 00:54:23;;;;;;;15.05;7.82;;;;;;;8.04;76.66;100820.47;5073638;28;20077;-71
2022/04/25 00:56:49;;;;;;;12.63;6.90;;;;;;;7.97;76.47;100817.09;5074181;28;20476;-71
2022/04/25 00:59:21;;;;;;;13.23;7.75;;;;;;;7.96;76.65;100824.91;5094017;28;20031;-71
2022/04/25 01:01:47;;;;;;;15.85;7.63;;;;;;;7.94;76.42;100816.28;5094256;28;20411;-71
2022/04/25 01:04:13;;;;;;;11.50;8.45;;;;;;;7.86;77.04;100802.56;5094757;28;20521;-71
2022/04/25 01:06:38;;;;;;;12.90;7.90;;;;;;;7.94;77.22;100818.88;5094181;28;20024;-71
2022/04/25 01:09:04;;;;;;;10.13;7.63;;;;;;;7.85;77.59;100816.41;5086381;28;20032;-71
2022/04/25 01:11:29;;;;;;;12.90;8.23;;;;;;;7.81;77.72;100820.75;5089886;28;20024;-71
2022/04/25 01:13:55;;;;;;;16.23;8.43;;;;;;;7.69;77.83;100816.59;5092031;28;20471;-71
2022/04/25 01:16:20;;;;;;;13.50;7.90;;;;;;;7.70;78.48;100818.31;5093683;28;20478;-71
2022/04/25 01:18:46;;;;;;;14.73;8.98;;;;;;;7.68;78.56;100829.56;5080576;28;20043;-71
2022/04/25 01:21:13;;;;;;;12.75;8.13;;;;;;;7.64;78.83;100812.34;5073870;28;20032;-71
2022/04/25 01:29:08;;;;;;;15.88;8.55;;;;;;;7.55;78.33;100818.47;5072925;28;19919;-71
2022/04/25 01:31:33;;;;;;;14.20;8.57;;;;;;;7.46;79.01;100816.88;5073894;28;20032;-71
2022/04/25 01:33:58;;;;;;;13.82;8.43;;;;;;;7.44;79.28;100818.59;5073905;28;20039;-71
2022/04/25 01:36:24;;;;;;;15.48;9.20;;;;;;;7.44;79.63;100818.59;5072945;28;20150;-71
2022/04/25 01:38:52;;;;;;;15.18;8.65;;;;;;;7.40;79.76;100827.31;5085449;28;20780;-71
2022/04/25 01:41:17;;;;;;;11.77;8.63;;;;;;;7.39;79.99;100828.19;5091375;28;20040;-71
2022/04/25 01:43:42;;;;;;;12.23;8.32;;;;;;;7.35;80.15;100821.28;5091556;28;20102;-71
2022/04/25 01:46:08;;;;;;;14.55;8.75;;;;;;;7.36;80.03;100827.38;5093660;28;20472;-71
2022/04/25 01:48:33;;;;;;;14.68;9.82;;;;;;;7.31;80.43;100824.78;5088828;28;20115;-71
2022/04/25 01:50:58;;;;;;;15.23;8.85;;;;;;;7.24;80.76;100828.34;5089073;28;20073;-71
2022/04/25 01:53:24;;;;;;;16.40;9.60;;;;;;;7.25;81.23;100819.66;5093547;28;20369;-71
2022/04/25 01:55:49;;;;;;;16.52;9.38;;;;;;;7.20;80.80;100824.91;5093209;28;20036;-71
2022/04/25 01:58:15;;;;;;;14.00;8.68;;;;;;;7.21;80.80;100826.63;5091174;28;20055;-71
2022/04/25 02:00:40;;;;;;;13.15;9.02;;;;;;;7.19;81.29;100824.91;5092590;28;20032;-71
2022/04/25 02:03:05;;;;;;;13.90;9.27;;;;;;;7.13;81.05;100822.38;5093326;28;20032;-71
2022/04/25 02:05:31;;;;;;;14.63;9.35;;;;;;;7.15;81.89;100821.50;5092959;28;20028;-71
2022/04/25 02:07:56;;;;;;;16.00;10.00;;;;;;;7.10;81.66;100823.28;5092172;28;20028;-71
2022/04/25 02:10:21;;;;;;;13.40;8.98;;;;;;;7.06;81.61;100816.38;5092132;28;20074;-71
2022/04/25 02:12:47;;;;;;;13.70;9.40;;;;;;;7.11;82.08;100822.41;5091842;28;20021;-71
2022/04/25 02:15:13;;;;;;;16.33;9.82;;;;;;;7.08;82.02;100819.84;5093234;28;20036;-71
2022/04/25 02:17:39;;;;;;;17.10;9.57;;;;;;;7.05;82.20;100819.88;5090088;28;20540;-71
2022/04/25 02:20:05;;;;;;;17.58;10.15;;;;;;;6.96;82.50;100823.38;5089697;28;20020;-71
2022/04/25 02:22:35;;;;;;;16.35;10.00;;;;;;;6.92;82.56;100829.47;5093002;28;20357;-71
2022/04/25 02:25:00;;;;;;;16.40;9.52;;;;;;;6.84;82.71;100820.94;5092427;28;20111;-71
2022/04/25 02:27:25;;;;;;;17.10;10.63;;;;;;;6.80;82.90;100824.41;5093061;28;20055;-71
2022/04/25 02:29:56;;;;;;;16.65;10.98;;;;;;;6.71;83.24;100820.16;5090501;28;20032;-71
2022/04/25 02:32:21;;;;;;;17.80;11.02;;;;;;;6.69;84.04;100827.06;5091144;28;20545;-71
2022/04/25 02:34:46;;;;;;;17.52;10.57;;;;;;;6.66;83.75;100818.47;5092727;28;20036;-71
2022/04/25 02:37:12;;;;;;;14.68;10.23;;;;;;;6.64;83.61;100815.91;5092806;28;20023;-71
2022/04/25 02:39:38;;;;;;;19.23;10.30;;;;;;;6.66;83.93;100819.31;5090289;28;20032;-71
2022/04/25 02:42:03;;;;;;;15.65;10.75;;;;;;;6.59;84.23;100820.25;5088068;28;20083;-71
2022/04/25 02:44:29;;;;;;;16.23;10.77;;;;;;;6.60;84.43;100816.78;5073317;28;20063;-71
2022/04/25 02:46:54;;;;;;;17.77;10.68;;;;;;;6.58;84.11;100815.94;5071625;28;20040;-72
2022/04/25 02:49:19;;;;;;;17.15;10.88;;;;;;;6.60;84.50;100821.09;5084062;28;20069;-71
2022/04/25 02:51:44;;;;;;;17.75;11.45;;;;;;;6.54;84.77;100815.13;5091137;28;20495;-71
2022/04/25 02:54:10;;;;;;;17.67;11.10;;;;;;;6.54;84.55;100820.31;5091787;28;20028;-71
2022/04/25 02:56:35;;;;;;;23.13;10.80;;;;;;;6.45;84.44;100816.91;5092382;28;20041;-71
2022/04/25 02:59:00;;;;;;;14.52;10.98;;;;;;;6.47;84.67;100822.91;5089224;28;20471;-71
2022/04/25 03:01:25;;;;;;;17.15;10.50;;;;;;;6.47;84.86;100817.75;5091706;28;20028;-71
2022/04/25 03:03:51;;;;;;;17.25;11.85;;;;;;;6.41;85.27;100822.97;5091045;28;20020;-71
2022/04/25 03:06:16;;;;;;;22.15;11.38;;;;;;;6.38;85.19;100820.41;5091132;28;20422;-71
2022/04/25 03:08:41;;;;;;;19.35;11.73;;;;;;;6.36;85.69;100815.22;5077791;28;20032;-71
2022/04/25 03:11:08;;;;;;;19.25;10.98;;;;;;;6.30;85.82;100821.31;5072097;28;20038;-71
2022/04/25 03:13:34;;;;;;;18.90;11.25;;;;;;;6.30;86.13;100818.72;5071644;28;20059;-71
2022/04/25 03:16:01;;;;;;;19.38;11.70;;;;;;;6.31;85.98;100820.47;5072016;28;20044;-71
2022/04/25 03:18:29;;;;;;;18.33;11.55;;;;;;;6.33;86.02;100821.28;5080349;28;20056;-71
2022/04/25 03:20:54;;;;;;;18.13;12.45;;;;;;;6.24;86.10;100815.31;5091278;28;20020;-71
2022/04/25 03:23:21;;;;;;;18.90;10.63;;;;;;;6.20;86.09;100813.63;5091850;28;20073;-71
2022/04/25 03:25:47;;;;;;;21.75;11.50;;;;;;;6.17;86.50;100814.47;5092365;28;20028;-71
2022/04/25 03:28:13;;;;;;;16.65;10.57;;;;;;;6.22;86.44;100817.91;5089303;28;20078;-71
2022/04/25 03:30:39;;;;;;;19.08;11.63;;;;;;;6.15;86.68;100830.88;5092100;28;20024;-71
2022/04/25 03:33:05;;;;;;;16.63;11.80;;;;;;;6.12;86.73;100829.19;5091830;28;20107;-71
2022/04/25 03:35:30;;;;;;;17.17;11.85;;;;;;;6.05;87.13;100820.59;5091063;28;20119;-71
2022/04/25 03:37:57;;;;;;;19.92;11.88;;;;;;;6.06;86.69;100821.47;5084364;28;20024;-71
2022/04/25 03:40:23;;;;;;;17.05;11.70;;;;;;;6.02;87.23;100830.13;5071822;28;20384;-71
2022/04/25 03:42:48;;;;;;;17.10;11.85;;;;;;;5.98;87.07;100833.56;5070884;28;20020;-71
2022/04/25 03:45:16;;;;;;;20.42;12.27;;;;;;;5.94;87.07;100826.69;5071626;28;20025;-71
2022/04/25 03:47:42;;;;;;;19.05;11.93;;;;;;;5.86;87.73;100830.16;5082304;28;20032;-71
2022/04/25 03:50:08;;;;;;;17.15;11.88;;;;;;;5.84;88.02;100829.28;5090174;28;20028;-71
2022/04/25 03:52:38;;;;;;;16.95;12.48;;;;;;;5.79;88.31;100828.47;5091397;28;20404;-71
2022/04/25 03:57:52;;;;;;;20.58;12.93;;;;;;;5.84;88.50;100838.78;5085672;28;20077;-71
2022/04/25 04:00:18;;;;;;;19.95;13.02;;;;;;;5.83;88.61;100834.47;5090357;28;20036;-71
2022/04/25 04:02:43;;;;;;;17.92;12.90;;;;;;;5.81;88.94;100837.06;5091302;28;20059;-71
2022/04/25 04:05:09;;;;;;;22.42;14.00;;;;;;;5.83;89.01;100832.75;5090951;28;20127;-71
2022/04/25 04:07:34;;;;;;;19.58;13.52;;;;;;;5.74;89.25;100840.53;5089204;28;20035;-71
2022/04/25 04:10:00;;;;;;;19.02;13.10;;;;;;;5.76;89.01;100845.72;5078292;28;20425;-71
2022/04/25 04:12:31;;;;;;;19.40;13.13;;;;;;;5.75;88.90;100844.81;5094170;28;20035;-71
2022/04/25 04:14:56;;;;;;;19.65;13.13;;;;;;;5.76;89.39;100845.72;5095770;28;20047;-71
2022/04/25 04:17:21;;;;;;;20.27;12.88;;;;;;;5.72;89.17;100856.91;5094553;28;20460;-71
2022/04/25 04:19:47;;;;;;;19.02;12.27;;;;;;;5.66;89.35;100850.06;5089827;28;20140;-70
2022/04/25 04:22:12;;;;;;;18.95;13.13;;;;;;;5.62;89.16;100845.75;5095488;28;20008;-71
2022/04/25 04:24:37;;;;;;;20.55;13.13;;;;;;;5.63;89.51;100852.66;5094659;28;20027;-71
2022/04/25 04:27:04;;;;;;;18.77;13.32;;;;;;;5.62;89.45;100850.91;5093541;28;20036;-71
2022/04/25 04:29:31;;;;;;;25.95;14.80;;;;;;;5.62;89.88;100850.91;5092741;28;20035;-71
2022/04/25 04:31:58;;;;;;;24.77;13.55;;;;;;;5.53;90.00;100854.41;5092930;28;20031;-71
2022/04/25 04:34:23;;;;;;;20.10;14.07;;;;;;;5.55;90.41;100864.72;5094439;28;20063;-71
2022/04/25 04:36:50;;;;;;;25.58;14.32;;;;;;;5.48;90.50;100850.97;5095068;28;20471;-71
2022/04/25 04:39:16;;;;;;;28.00;14.15;;;;;;;5.48;90.33;100868.19;5090253;28;20432;-71
2022/04/25 04:41:41;;;;;;;20.80;14.10;;;;;;;5.44;90.58;100869.06;5094993;28;20031;-71
2022/04/25 04:44:06;;;;;;;21.77;14.05;;;;;;;5.46;90.54;100875.97;5094887;28;20028;-71
2022/04/25 04:46:31;;;;;;;22.95;14.60;;;;;;;5.45;90.64;100874.22;5094317;28;20085;-71
2022/04/25 04:48:57;;;;;;;19.33;14.05;;;;;;;5.49;90.88;100875.94;5085853;28;20024;-71
2022/04/25 04:51:22;;;;;;;21.58;13.13;;;;;;;5.45;90.79;100873.38;5093783;28;20499;-71
2022/04/25 04:53:47;;;;;;;20.65;14.35;;;;;;;5.43;90.92;100857.00;5094310;28;20024;-71
2022/04/25 04:56:13;;;;;;;23.67;15.02;;;;;;;5.49;91.68;100872.50;5095054;28;20387;-71
2022/04/25 04:58:38;;;;;;;25.48;15.52;;;;;;;5.59;91.54;100879.38;5093124;28;20036;-71
2022/04/25 05:01:04;;;;;;;24.52;15.98;;;;;;;5.59;92.11;100879.38;5093894;28;20031;-71
2022/04/25 05:03:31;;;;;;;23.70;14.48;;;;;;;5.64;91.40;100878.50;5094812;28;20039;-71
2022/04/25 05:05:56;;;;;;;24.92;15.77;;;;;;;5.66;91.68;100886.28;5094841;28;20028;-71
2022/04/25 05:08:22;;;;;;;22.45;15.25;;;;;;;5.65;92.15;100884.53;5093178;28;20073;-71
2022/04/25 05:10:48;;;;;;;27.73;15.38;;;;;;;5.73;91.82;100885.38;5094678;28;20030;-71
2022/04/25 05:13:15;;;;;;;23.63;16.00;;;;;;;5.71;91.66;100889.69;5094171;28;20028;-71
2022/04/25 05:15:40;;;;;;;26.23;15.98;;;;;;;5.85;91.84;100887.94;5093682;28;20020;-71
2022/04/25 05:18:06;;;;;;;21.80;15.32;;;;;;;5.92;91.98;100888.78;5084083;28;20036;-71
2022/04/25 05:20:31;;;;;;;22.55;15.13;;;;;;;6.07;91.42;100895.63;5091050;28;20127;-71
2022/04/25 05:22:56;;;;;;;22.92;15.02;;;;;;;6.18;90.86;100898.19;5094677;28;20032;-71
2022/04/25 05:25:25;;;;;;;27.25;15.05;;;;;;;6.26;91.07;100892.09;5093213;28;20085;-71
2022/04/25 05:27:53;;;;;;;22.30;15.63;;;;;;;6.40;90.61;100904.13;5092024;28;20482;-71
2022/04/25 05:30:19;;;;;;;20.45;15.30;;;;;;;6.50;89.79;100896.28;5094083;28;20107;-71
2022/04/25 05:32:47;;;;;;;22.50;15.57;;;;;;;6.64;89.67;100901.41;5094330;28;20032;-71
2022/04/25 05:35:15;;;;;;;27.98;15.98;;;;;;;6.78;89.44;100907.34;5093237;28;20031;-71
2022/04/25 05:37:40;;;;;;;23.35;15.82;;;;;;;6.89;88.47;100912.44;5091807;28;20503;-71
2022/04/25 05:40:06;;;;;;;22.13;14.77;;;;;;;6.97;88.05;100908.06;5092850;28;20028;-71
2022/04/25 05:42:33;;;;;;;28.40;15.57;;;;;;;7.10;87.47;100918.34;5093342;28;20415;-71
2022/04/25 05:45:00;;;;;;;27.73;14.55;;;;;;;7.14;87.13;100909.66;5093892;28;20020;-71
2022/04/25 05:47:26;;;;;;;21.15;14.15;;;;;;;7.19;87.14;100928.63;5089248;28;20036;-71
2022/04/25 05:52:36;;;;;;;26.40;15.55;;;;;;;7.33;86.26;100931.97;5093480;28;20549;-71
2022/04/25 05:55:02;;;;;;;26.25;15.02;;;;;;;7.40;85.63;100928.44;5093417;28;20067;-71
2022/04/25 05:57:28;;;;;;;22.25;14.55;;;;;;;7.45;85.78;100926.66;5090525;28;20036;-71
2022/04/25 05:59:53;;;;;;;20.35;14.20;;;;;;;7.45;85.26;100929.25;5088562;28;20035;-71
2022/04/25 06:02:18;;;;;;;20.80;14.30;;;;;;;7.54;85.51;100935.25;5090418;28;20040;-71
2022/04/25 06:04:43;;;;;;;24.45;14.95;;;;;;;7.64;85.47;100935.13;5092769;28;20028;-71
2022/04/25 06:07:09;;;;;;;25.27;15.65;;;;;;;7.72;84.96;100933.34;5092106;28;20114;-71
2022/04/25 06:09:34;;;;;;;22.40;14.85;;;;;;;7.76;83.99;100936.75;5091495;28;20501;-71
2022/04/25 06:12:00;;;;;;;23.73;15.68;;;;;;;7.83;84.11;100937.56;5072633;28;20028;-71
2022/04/25 06:14:25;;;;;;;27.00;15.40;;;;;;;7.80;84.55;100942.78;5073023;28;20051;-71
2022/04/25 06:16:51;;;;;;;22.95;15.32;;;;;;;7.85;84.47;100946.19;5079798;28;20030;-71
2022/04/25 06:19:17;;;;;;;23.50;14.73;;;;;;;7.84;84.20;100947.91;5093279;28;20372;-71
2022/04/25 06:21:43;;;;;;;23.13;15.48;;;;;;;7.85;85.14;100948.78;5083426;28;20490;-71
2022/04/25 06:24:08;;;;;;;23.02;15.95;;;;;;;7.94;84.67;100956.47;5072258;28;20029;-71
2022/04/25 06:26:34;;;;;;;26.30;16.85;;;;;;;7.95;84.42;100950.41;5077582;28;20066;-71
2022/04/25 06:28:59;;;;;;;26.85;16.15;;;;;;;8.01;84.04;100958.13;5093444;28;20023;-71
2022/04/25 06:31:25;;;;;;;25.42;16.25;;;;;;;8.03;84.00;100963.28;5084409;28;20127;-71
2022/04/25 06:33:50;;;;;;;24.02;14.68;;;;;;;8.04;83.81;100945.09;5084810;28;20028;-71
2022/04/25 06:36:16;;;;;;;24.73;16.38;;;;;;;8.13;84.26;100957.97;5088271;28;20070;-71
2022/04/25 06:38:41;;;;;;;23.63;16.88;;;;;;;8.17;84.21;100958.78;5076344;28;20025;-71
2022/04/25 06:41:07;;;;;;;25.52;15.88;;;;;;;8.22;83.98;100957.03;5089810;28;20020;-71
2022/04/25 06:43:33;;;;;;;27.10;16.63;;;;;;;8.19;83.00;100954.44;5084606;28;20051;-71
2022/04/25 06:45:58;;;;;;;22.92;16.55;;;;;;;8.19;83.49;100952.72;5072740;28;20031;-71
2022/04/25 06:48:23;;;;;;;25.38;16.55;;;;;;;8.25;84.10;100953.53;5071532;28;20063;-72
2022/04/25 06:50:49;;;;;;;22.77;15.95;;;;;;;8.37;83.99;100956.84;5070863;28;20544;-71
2022/04/25 06:53:14;;;;;;;27.33;15.95;;;;;;;8.48;83.48;100948.94;5069853;28;20049;-71
2022/04/25 06:55:40;;;;;;;23.05;16.48;;;;;;;8.51;83.23;100959.28;5070345;28;20037;-71
2022/04/25 06:58:06;;;;;;;28.02;16.70;;;;;;;8.62;82.97;100951.34;5080399;28;20376;-71
2022/04/25 07:00:31;;;;;;;29.95;17.55;;;;;;;8.80;82.23;100963.25;5091998;28;20020;-73
2022/04/25 07:02:57;;;;;;;22.73;16.08;;;;;;;8.93;81.35;100964.78;5082719;28;20391;-71
2022/04/25 07:05:24;;;;;;;23.63;16.60;;;;;;;9.03;81.24;100963.75;5088619;28;20039;-71
2022/04/25 07:07:49;;;;;;;24.63;17.63;;;;;;;9.04;81.11;100947.25;5086787;28;20031;-71
2022/04/25 07:10:14;;;;;;;24.83;17.33;;;;;;;9.11;81.10;100961.03;5090665;28;20434;-71
2022/04/25 07:12:40;;;;;;;23.35;16.50;;;;;;;9.10;81.40;100967.13;5079371;28;20039;-71
2022/04/25 07:15:06;;;;;;;26.25;16.52;;;;;;;9.06;81.45;100968.06;5091648;28;20027;-72
2022/04/25 07:17:31;;;;;;;26.52;17.23;;;;;;;9.02;81.58;100968.97;5091966;28;20468;-71
2022/04/25 07:19:56;;;;;;;23.52;16.92;;;;;;;9.00;81.27;100970.75;5090589;28;20027;-72
2022/04/25 07:30:34;;;;;;;30.02;18.58;;;;;;;9.10;82.21;100985.31;5071752;28;20085;-71
2022/04/25 07:33:00;;;;;;;24.98;18.15;;;;;;;9.08;81.80;100974.94;5088536;28;20028;-71
2022/04/25 07:35:26;;;;;;;33.33;19.13;;;;;;;9.10;81.77;100985.31;5091112;28;20086;-71
2022/04/25 07:37:51;;;;;;;24.60;19.13;;;;;;;9.01;82.52;100983.72;5091102;28;20020;-72
2022/04/25 07:40:17;;;;;;;26.10;18.58;;;;;;;8.98;82.82;100980.28;5091474;28;20399;-72
2022/04/25 07:42:42;;;;;;;28.40;19.80;;;;;;;8.96;82.85;100980.34;5088602;28;20152;-72
2022/04/25 07:45:08;;;;;;;28.77;19.33;;;;;;;8.96;83.05;100989.84;5092341;28;20399;-72
2022/04/25 07:47:34;;;;;;;28.15;19.70;;;;;;;8.90;83.59;100988.22;5094076;28;20032;-72
2022/04/25 07:50:00;;;;;;;29.85;19.48;;;;;;;8.88;82.92;100982.16;5086421;28;20025;-71
2022/04/25 07:52:26;;;;;;;25.60;19.80;;;;;;;8.90;83.30;100988.22;5080878;28;20071;-71
2022/04/25 07:54:52;;;;;;;31.75;20.15;;;;;;;8.86;83.30;100989.13;5095288;28;20095;-71
2022/04/25 07:57:18;;;;;;;32.67;20.00;;;;;;;8.81;83.35;100998.75;5085384;28;20020;-71
2022/04/25 07:59:44;;;;;;;33.55;20.85;;;;;;;8.80;83.94;101003.09;5095826;28;20028;-70
2022/04/25 08:02:09;;;;;;;27.38;20.73;;;;;;;8.77;84.02;101003.13;5095333;28;20119;-71
2022/04/25 08:04:34;;;;;;;32.30;20.38;;;;;;;8.75;83.90;101010.06;5078000;28;20107;-72
2022/04/25 08:07:00;;;;;;;31.15;21.23;;;;;;;8.72;83.89;101009.25;5084639;28;20063;-72
2022/04/25 08:09:25;;;;;;;27.80;20.15;;;;;;;8.70;83.95;101011.00;5083581;28;20564;-71
2022/04/25 08:17:56;;;;;;;31.05;20.48;;;;;;;8.59;84.39;101004.22;5088126;28;20028;-71
2022/04/25 08:20:04;;;;;;;;;;;;;;;8.65;83.70;101017.13;5075731;28;20487;-71
2022/04/25 08:22:29;;;;;;;32.50;22.83;;;;;;;8.59;85.77;101026.75;5075307;28;19959;-71
2022/04/25 08:24:54;;;;;;;27.42;20.75;;;;;;;8.49;87.28;101027.72;5074567;28;20116;-71
2022/04/25 08:27:20;;;;;;;36.10;22.38;;;;;;;8.32;88.62;101038.28;5082223;28;20099;-71
2022/04/25 08:29:48;;;;;;;33.15;21.70;;;;;;;8.20;90.41;101031.47;5094882;28;20019;-72
2022/04/25 08:32:13;;;;;;;32.10;21.88;;;;;;;8.11;91.00;101035.06;5091706;28;20442;-71
2022/04/25 08:34:39;;;;;;;33.22;23.88;;;;;;;8.11;92.47;101040.25;5095188;28;20075;-71
2022/04/25 08:37:04;;;;;;;35.95;23.50;;;;;;;8.10;93.62;101038.50;5080245;28;20050;-71
2022/04/25 08:39:29;;;;;;;32.80;23.30;;;;;;;8.05;93.78;101048.09;5074606;28;20357;-71
2022/04/25 08:42:00;;;;;;;38.45;26.08;;;;;;;8.05;95.06;101055.88;5074679;28;20032;-72
2022/04/25 08:44:25;;;;;;;36.40;25.15;;;;;;;8.09;95.11;101052.38;5074205;28;20032;-72
2022/04/25 08:46:54;;;;;;;38.80;24.70;;;;;;;8.15;95.85;101059.25;5083445;28;20024;-72
2022/04/25 08:49:20;;;;;;;35.42;24.38;;;;;;;8.22;95.18;101055.72;5091663;28;20452;-71
2022/04/25 08:51:47;;;;;;;38.92;25.50;;;;;;;8.30;95.72;101063.41;5073794;28;20048;-72
2022/04/25 08:54:14;;;;;;;35.95;24.58;;;;;;;8.23;95.90;101047.03;5074499;28;20498;-72
2022/04/25 08:56:41;;;;;;;35.67;24.50;;;;;;;8.24;95.59;101059.16;5073734;28;20020;-71
2022/04/25 08:59:08;;;;;;;37.72;26.08;;;;;;;8.14;96.08;101070.50;5074136;28;20016;-71
2022/04/25 09:01:35;;;;;;;41.17;26.40;;;;;;;8.09;97.64;101067.94;5074635;28;20028;-71
2022/04/25 09:04:01;;;;;;;37.38;26.08;;;;;;;8.07;98.04;101076.63;5074530;28;20021;-72
2022/04/25 09:06:27;;;;;;;34.28;24.40;;;;;;;8.02;97.39;101073.22;5074122;28;20379;-71
2022/04/25 09:08:52;;;;;;;39.10;25.67;;;;;;;7.93;98.14;101072.41;5074303;28;20021;-72
2022/04/25 09:14:03;;;;;;;41.15;26.65;;;;;;;7.90;99.55;101084.56;5073883;28;20539;-72
2022/04/25 09:16:28;;;;;;;42.83;27.65;;;;;;;7.89;99.88;101083.72;5074590;28;20028;-72
2022/04/25 09:18:54;;;;;;;36.75;25.85;;;;;;;7.83;99.97;101077.72;5073856;28;20112;-72
2022/04/25 09:21:19;;;;;;;41.13;27.30;;;;;;;7.82;100.00;101073.41;5073496;28;20021;-72
2022/04/25 09:23:44;;;;;;;44.78;28.65;;;;;;;7.90;100.00;101085.44;5073980;28;20032;-72
2022/04/25 09:26:20;;;;;;;40.25;27.38;;;;;;;7.86;100.00;101077.69;5073757;28;20024;-72
2022/04/25 09:28:50;;;;;;;41.78;28.30;;;;;;;7.84;100.00;101095.84;5073522;28;20387;-72
2022/04/25 09:31:17;;;;;;;47.30;29.23;;;;;;;7.84;100.00;101090.66;5073918;28;20058;-72
2022/04/25 09:33:43;;;;;;;45.80;27.83;;;;;;;7.83;100.00;101081.16;5073044;28;20021;-72
2022/04/25 09:36:09;;;;;;;40.97;28.48;;;;;;;7.88;100.00;101092.38;5073726;28;20023;-72
2022/04/25 09:38:37;;;;;;;46.97;28.73;;;;;;;7.90;100.00;101089.75;5073693;28;20116;-72
2022/04/25 09:41:05;;;;;;;42.13;29.50;;;;;;;7.92;100.00;101093.22;5073316;28;20112;-72
2022/04/25 09:43:37;;;;;;;41.30;29.08;;;;;;;7.89;100.00;101085.44;5073644;28;20095;-72
2022/04/25 09:46:06;;;;;;;45.40;30.58;;;;;;;7.95;100.00;101094.06;5073481;28;20035;-72
2022/04/25 09:48:31;;;;;;;44.00;30.73;;;;;;;8.01;100.00;101098.34;5073018;28;20025;-72
2022/04/25 09:51:18;;;;;;;47.95;30.30;;;;;;;7.99;100.00;101100.06;5073430;28;20032;-73
2022/04/25 09:53:52;;;;;;;46.38;30.77;;;;;;;8.00;100.00;101109.56;5073307;28;20093;-72
2022/04/25 09:56:26;;;;;;;49.80;31.15;;;;;;;8.00;100.00;101099.19;5072800;28;20387;-72
2022/04/25 09:59:06;;;;;;;47.05;30.05;;;;;;;7.97;100.00;101097.47;5073267;28;20082;-72
2022/04/25 10:01:43;;;;;;;45.92;30.92;;;;;;;8.05;100.00;101104.38;5072964;28;20044;-73
2022/04/25 10:04:34;;;;;;;45.00;30.10;;;;;;;8.04;100.00;101108.66;5072359;28;20058;-73
2022/04/25 10:07:05;;;;;;;43.75;29.58;;;;;;;8.07;100.00;101112.97;5079760;28;20012;-73
2022/04/25 10:09:33;;;;;;;44.75;29.13;;;;;;;8.02;100.00;101113.03;5071869;28;20611;-73
2022/04/25 10:12:01;;;;;;;41.42;28.63;;;;;;;8.01;100.00;101116.50;5073507;28;20107;-74
2022/04/25 10:14:27;;;;;;;45.10;27.35;;;;;;;8.06;100.00;101119.06;5078589;28;20086;-76
2022/04/25 10:16:57;;;;;;;40.55;28.15;;;;;;;8.09;100.00;101126.81;5091305;28;20107;-73
2022/04/25 10:19:24;;;;;;;39.72;26.73;;;;;;;8.11;100.00;101130.25;5093191;28;20057;-74
2022/04/25 10:21:55;;;;;;;41.00;27.98;;;;;;;8.11;100.00;101128.53;5092808;28;20020;-74
2022/04/25 10:24:21;;;;;;;38.13;27.00;;;;;;;8.13;100.00;101128.50;5092394;28;20078;-73
2022/04/25 10:26:48;;;;;;;42.25;26.10;;;;;;;8.13;100.00;101121.56;5091394;28;20032;-73
2022/04/25 10:29:21;;;;;;;43.15;25.92;;;;;;;8.16;100.00;101129.34;5088876;28;20039;-73
2022/04/25 10:31:48;;;;;;;41.83;25.80;;;;;;;8.23;100.00;101131.88;5092490;28;20024;-74
2022/04/25 10:34:16;;;;;;;38.55;25.90;;;;;;;8.33;100.00;101134.38;5077107;28;20464;-73
2022/04/25 10:36:44;;;;;;;38.80;26.58;;;;;;;8.49;100.00;101142.91;5072215;28;20060;-74
2022/04/25 10:39:16;;;;;;;37.22;26.85;;;;;;;8.65;100.00;101147.06;5087987;28;20032;-74
2022/04/25 10:44:43;;;;;;;39.15;26.30;;;;;;;8.97;100.00;101148.47;5082250;28;20127;-74
2022/04/25 10:47:13;;;;;;;32.83;24.70;;;;;;;8.90;100.00;101152.03;5089980;28;20506;-75
2022/04/25 10:49:55;;;;;;;34.10;25.15;;;;;;;8.75;100.00;101147.00;5092348;28;20036;-74
2022/04/25 10:52:52;;;;;;;31.10;23.95;;;;;;;8.73;100.00;101161.72;5089625;28;20052;-74
2022/04/25 10:55:42;;;;;;;32.83;23.67;;;;;;;8.59;100.00;101160.13;5071624;28;20055;-73
2022/04/25 10:58:12;;;;;;;33.97;23.63;;;;;;;8.48;100.00;101164.59;5085130;28;20059;-73
2022/04/25 11:00:37;;;;;;;33.40;22.90;;;;;;;8.41;100.00;101160.34;5075036;28;20043;-73
2022/04/25 11:03:05;;;;;;;36.00;24.85;;;;;;;8.38;100.00;101157.75;5072354;28;20883;-73
2022/04/25 11:05:30;;;;;;;35.15;24.73;;;;;;;8.42;100.00;101152.50;5087734;28;20021;-73
2022/04/25 11:08:19;;;;;;;40.07;25.13;;;;;;;8.53;100.00;101162.78;5073444;28;20361;-74
2022/04/25 11:10:58;;;;;;;38.17;25.95;;;;;;;8.61;100.00;101160.13;5089818;28;20293;-73
2022/04/25 11:13:26;;;;;;;37.28;25.80;;;;;;;8.72;100.00;101163.47;5079326;28;20036;-74
2022/04/25 11:15:56;;;;;;;34.63;24.23;;;;;;;8.72;100.00;101163.47;5083494;28;20043;-74
2022/04/25 11:18:37;;;;;;;34.70;24.30;;;;;;;8.73;100.00;101173.00;5073645;28;20028;-74
2022/04/25 11:21:07;;;;;;;38.70;25.58;;;;;;;8.77;100.00;101169.50;5093084;28;20060;-74
2022/04/25 11:23:35;;;;;;;34.78;24.90;;;;;;;8.75;100.00;101171.25;5112293;28;20471;-74
2022/04/25 11:26:01;;;;;;;31.02;24.10;;;;;;;8.77;100.00;101177.28;5091895;28;20055;-74
2022/04/25 11:28:28;;;;;;;34.08;24.50;;;;;;;8.70;100.00;101166.97;5091442;28;20021;-74
2022/04/25 11:31:15;;;;;;;33.85;23.90;;;;;;;8.75;100.00;101179.03;5091636;28;20376;-74
2022/04/25 11:33:42;;;;;;;33.28;23.90;;;;;;;8.76;100.00;101182.50;5075328;28;20088;-74
2022/04/25 11:36:08;;;;;;;34.25;23.40;;;;;;;8.77;100.00;101182.50;5098564;28;20024;-74
2022/04/25 11:41:22;;;;;;;34.03;23.45;;;;;;;8.85;100.00;101182.41;5070931;28;20085;-74
2022/04/25 11:43:47;;;;;;;32.15;23.25;;;;;;;8.93;100.00;101180.59;5077786;28;20116;-74
2022/04/25 11:46:14;;;;;;;33.65;23.98;;;;;;;9.08;100.00;101188.19;5078573;28;20473;-74
2022/04/25 11:48:39;;;;;;;35.60;24.77;;;;;;;9.26;100.00;101196.69;5070924;28;20025;-74